Time;durP1;ratioP1;P1;durP2;ratioP2;P2;SDS_P1;SDS_P2;PMS_P1;PMS_P2;Temp;Humidity;BMP_temperature;BMP_pressure;BME280_temperature;BME280_humidity;BME280_pressure;Samples;Min_cycle;Max_cycle;Signal;HPM_P1;HPM_P2
2023/10/26 00:01:35;;;;;;;20.50;14.38;;;10.00;99.90;;;;;;5017207;28;20399;-90
2023/10/26 00:04:01;;;;;;;19.85;13.52;;;9.90;99.90;;;;;;5017685;28;20033;-90
2023/10/26 00:06:27;;;;;;;19.38;13.20;;;9.60;99.90;;;;;;5016292;28;20052;-89
2023/10/26 00:08:53;;;;;;;18.05;13.15;;;10.00;99.90;;;;;;5017638;28;20106;-90
2023/10/26 00:11:19;;;;;;;21.63;14.70;;;10.00;99.90;;;;;;5033692;28;20068;-88
2023/10/26 00:13:47;;;;;;;18.95;13.82;;;10.00;99.90;;;;;;5016294;28;20122;-88
2023/10/26 00:16:12;;;;;;;16.83;13.48;;;10.60;99.90;;;;;;5017093;28;20052;-88
2023/10/26 00:18:38;;;;;;;20.20;13.43;;;10.00;99.90;;;;;;5016005;28;20041;-89
2023/10/26 00:21:04;;;;;;;20.58;13.88;;;10.00;99.90;;;;;;5032026;28;20091;-89
2023/10/26 00:23:29;;;;;;;18.35;13.85;;;10.00;99.90;;;;;;5015813;28;20419;-89
2023/10/26 00:25:55;;;;;;;21.08;14.50;;;10.00;99.90;;;;;;5032699;28;20410;-89
2023/10/26 00:28:20;;;;;;;22.48;14.95;;;10.00;99.90;;;;;;5013525;28;20041;-90
2023/10/26 00:30:46;;;;;;;21.10;14.60;;;10.00;99.90;;;;;;5015424;28;20037;-88
2023/10/26 00:33:16;;;;;;;19.90;14.65;;;10.00;99.90;;;;;;5032963;28;20052;-89
2023/10/26 00:35:42;;;;;;;20.58;14.73;;;10.70;99.90;;;;;;5032086;28;20055;-90
2023/10/26 00:38:12;;;;;;;22.50;15.48;;;9.90;99.90;;;;;;5017007;28;20045;-89
2023/10/26 00:40:39;;;;;;;21.58;15.30;;;9.90;99.90;;;;;;5017514;28;20080;-88
2023/10/26 00:43:04;;;;;;;20.75;15.43;;;10.30;99.90;;;;;;5015846;28;20079;-89
2023/10/26 00:45:34;;;;;;;19.75;14.70;;;10.10;99.90;;;;;;5016121;28;20080;-89
2023/10/26 00:48:00;;;;;;;23.38;14.88;;;9.90;99.90;;;;;;5032273;28;20394;-89
2023/10/26 00:50:27;;;;;;;22.50;15.65;;;9.90;99.90;;;;;;5049145;28;20511;-89
2023/10/26 00:52:55;;;;;;;18.92;15.13;;;9.90;99.90;;;;;;5015011;28;20083;-89
2023/10/26 00:55:22;;;;;;;22.70;15.57;;;9.90;99.90;;;;;;5032995;28;20103;-89
2023/10/26 00:57:48;;;;;;;21.10;15.77;;;9.90;99.90;;;;;;5015923;28;20037;-89
2023/10/26 01:00:14;;;;;;;22.20;15.48;;;9.90;99.90;;;;;;5032269;28;20464;-89
2023/10/26 01:02:40;;;;;;;23.13;15.50;;;9.90;99.90;;;;;;5015305;28;20049;-89
2023/10/26 01:05:06;;;;;;;21.77;15.98;;;9.90;99.90;;;;;;5015757;28;20080;-89
2023/10/26 01:07:31;;;;;;;21.63;15.98;;;9.80;99.90;;;;;;5017320;28;20085;-88
2023/10/26 01:09:57;;;;;;;24.50;16.15;;;9.80;99.90;;;;;;5035820;28;20628;-88
2023/10/26 01:12:23;;;;;;;22.45;15.88;;;9.80;99.90;;;;;;5019133;28;20065;-89
2023/10/26 01:14:49;;;;;;;21.55;16.17;;;9.80;99.90;;;;;;5018732;28;20052;-88
2023/10/26 01:17:15;;;;;;;26.65;17.33;;;9.70;99.90;;;;;;5035557;28;20041;-89
2023/10/26 01:19:47;;;;;;;24.48;17.40;;;10.20;99.90;;;;;;5035903;28;20056;-88
2023/10/26 01:22:13;;;;;;;;;;;9.70;99.90;;;;;;5035591;28;20057;-89
2023/10/26 01:24:39;;;;;;;21.20;16.77;;;9.70;99.90;;;;;;5035397;28;19924;-88
2023/10/26 01:27:05;;;;;;;24.00;18.13;;;10.00;99.90;;;;;;5034550;28;20056;-89
2023/10/26 01:29:33;;;;;;;23.38;17.65;;;9.70;99.90;;;;;;5019286;28;20075;-89
2023/10/26 01:31:59;;;;;;;25.38;18.45;;;9.70;99.90;;;;;;5018033;28;20140;-88
2023/10/26 01:34:25;;;;;;;25.40;17.70;;;9.70;99.90;;;;;;5010326;28;20041;-89
2023/10/26 01:36:51;;;;;;;28.13;18.67;;;9.60;99.90;;;;;;5034701;28;20115;-89
2023/10/26 01:39:17;;;;;;;25.17;18.40;;;9.60;99.90;;;;;;5033113;28;20072;-89
2023/10/26 01:41:43;;;;;;;26.55;19.58;;;9.60;99.90;;;;;;5027416;28;20124;-88
2023/10/26 01:44:13;;;;;;;26.83;19.33;;;9.60;99.90;;;;;;5017692;28;20463;-88
2023/10/26 01:46:39;;;;;;;29.95;19.60;;;9.70;99.90;;;;;;5034552;28;20059;-89
2023/10/26 01:49:05;;;;;;;29.90;20.30;;;9.60;99.90;;;;;;5033442;28;20045;-88
2023/10/26 01:51:30;;;;;;;26.67;19.25;;;9.70;99.90;;;;;;5016778;28;20046;-88
2023/10/26 01:53:56;;;;;;;31.15;20.17;;;9.70;99.90;;;;;;5033743;28;20069;-88
2023/10/26 01:56:22;;;;;;;25.63;18.70;;;9.70;99.90;;;;;;5034115;28;20037;-87
2023/10/26 01:58:47;;;;;;;29.02;20.27;;;9.70;99.90;;;;;;5034103;28;20048;-86
2023/10/26 02:01:13;;;;;;;32.95;21.30;;;9.70;99.90;;;;;;5032564;28;20119;-86
2023/10/26 02:03:39;;;;;;;30.92;19.73;;;9.70;99.90;;;;;;5032190;28;20525;-87
2023/10/26 02:06:05;;;;;;;27.33;19.83;;;10.40;99.90;;;;;;5034003;28;20121;-88
2023/10/26 02:08:31;;;;;;;30.35;20.63;;;9.70;99.90;;;;;;5030042;28;20052;-87
2023/10/26 02:10:56;;;;;;;28.15;19.80;;;9.70;99.90;;;;;;5032406;28;20068;-86
2023/10/26 02:13:22;;;;;;;33.42;21.40;;;9.70;99.90;;;;;;5032566;28;20072;-87
2023/10/26 02:15:48;;;;;;;26.98;20.05;;;10.10;99.90;;;;;;5033064;28;20037;-86
2023/10/26 02:18:13;;;;;;;29.58;21.15;;;9.70;99.90;;;;;;5015101;28;20077;-86
2023/10/26 02:20:39;;;;;;;30.40;21.45;;;9.70;99.90;;;;;;5032302;28;20052;-85
2023/10/26 02:23:05;;;;;;;33.58;21.92;;;9.70;99.90;;;;;;5032559;28;20053;-86
2023/10/26 02:25:31;;;;;;;31.30;22.27;;;9.70;99.90;;;;;;5031546;28;20049;-86
2023/10/26 02:27:57;;;;;;;32.65;22.65;;;9.70;99.90;;;;;;5044153;28;20030;-87
2023/10/26 02:30:23;;;;;;;32.67;22.65;;;9.70;99.90;;;;;;4996389;28;20087;-87
2023/10/26 02:32:49;;;;;;;32.05;22.15;;;9.70;99.90;;;;;;5017798;28;20072;-87
2023/10/26 02:35:15;;;;;;;32.10;21.80;;;9.70;99.90;;;;;;5032217;28;20056;-87
2023/10/26 02:37:42;;;;;;;32.65;21.73;;;9.70;99.90;;;;;;5031575;28;20386;-87
2023/10/26 02:40:09;;;;;;;30.67;22.15;;;9.80;99.90;;;;;;5031844;28;20037;-87
2023/10/26 02:42:35;;;;;;;38.00;22.23;;;9.70;99.90;;;;;;5030646;28;20052;-86
2023/10/26 02:45:03;;;;;;;34.65;22.85;;;9.70;99.90;;;;;;5032294;28;20055;-87
2023/10/26 02:47:29;;;;;;;32.17;22.98;;;10.00;99.90;;;;;;5004081;28;20037;-88
2023/10/26 02:49:55;;;;;;;33.20;22.33;;;10.10;99.90;;;;;;5026120;28;20127;-86
2023/10/26 02:52:21;;;;;;;36.83;23.77;;;9.80;99.90;;;;;;5030186;28;20152;-88
2023/10/26 02:54:46;;;;;;;31.75;22.13;;;9.40;99.90;;;;;;5031659;28;20453;-87
2023/10/26 02:57:14;;;;;;;33.75;22.90;;;9.70;99.90;;;;;;5014351;28;20667;-87
2023/10/26 02:59:40;;;;;;;36.00;23.25;;;9.90;99.90;;;;;;5014922;28;20517;-87
2023/10/26 03:02:06;;;;;;;37.17;24.63;;;9.70;99.90;;;;;;5048175;28;20157;-86
2023/10/26 03:04:34;;;;;;;36.90;23.58;;;9.70;99.90;;;;;;5030588;28;20471;-87
2023/10/26 03:07:00;;;;;;;39.20;22.75;;;9.60;99.90;;;;;;5030561;28;20049;-87
2023/10/26 03:09:28;;;;;;;36.22;23.52;;;9.70;99.90;;;;;;5030785;28;20056;-87
2023/10/26 03:11:53;;;;;;;35.20;23.10;;;9.70;99.90;;;;;;5030465;28;20056;-87
2023/10/26 03:14:19;;;;;;;33.28;23.05;;;9.60;99.90;;;;;;5013406;28;20056;-87
2023/10/26 03:16:45;;;;;;;38.40;24.23;;;9.60;99.90;;;;;;5030087;28;20037;-87
2023/10/26 03:19:10;;;;;;;35.55;23.58;;;9.60;99.90;;;;;;5030975;28;20060;-87
2023/10/26 03:21:36;;;;;;;39.67;23.63;;;9.60;99.90;;;;;;5013760;28;20391;-87
2023/10/26 03:24:02;;;;;;;38.25;24.48;;;9.60;99.90;;;;;;5030566;28;20052;-87
2023/10/26 03:26:28;;;;;;;39.67;24.77;;;9.70;99.90;;;;;;5014812;28;20052;-87
2023/10/26 03:28:54;;;;;;;36.50;24.95;;;9.70;99.90;;;;;;5015357;28;20041;-87
2023/10/26 03:31:19;;;;;;;38.25;23.55;;;9.60;99.90;;;;;;5030823;28;20056;-86
2023/10/26 03:33:45;;;;;;;37.90;23.85;;;9.60;99.90;;;;;;5031840;28;20126;-87
2023/10/26 03:36:19;;;;;;;39.42;24.08;;;9.60;99.90;;;;;;5031959;28;20053;-87
2023/10/26 03:38:46;;;;;;;36.58;22.95;;;9.70;99.90;;;;;;5031240;28;20041;-87
2023/10/26 03:41:12;;;;;;;36.97;23.85;;;9.70;99.90;;;;;;5030725;28;20835;-87
2023/10/26 03:43:38;;;;;;;39.85;25.38;;;9.60;99.90;;;;;;5030929;28;20056;-86
2023/10/26 03:46:07;;;;;;;39.17;25.33;;;9.70;99.90;;;;;;5031363;28;20491;-87
2023/10/26 03:48:34;;;;;;;36.75;24.42;;;9.70;99.90;;;;;;5031047;28;20083;-87
2023/10/26 03:51:00;;;;;;;40.65;26.27;;;9.60;99.90;;;;;;5014862;28;20076;-86
2023/10/26 03:53:26;;;;;;;41.33;25.02;;;9.60;99.90;;;;;;5013820;28;20048;-87
2023/10/26 03:55:52;;;;;;;42.63;24.73;;;9.60;99.90;;;;;;5014395;28;20049;-87
2023/10/26 03:58:20;;;;;;;41.70;26.25;;;9.60;99.90;;;;;;5031041;28;20124;-87
2023/10/26 04:00:47;;;;;;;43.35;24.90;;;9.60;99.90;;;;;;5030481;28;20135;-87
2023/10/26 04:03:13;;;;;;;41.22;26.48;;;9.60;99.90;;;;;;5031173;28;20094;-87
2023/10/26 04:05:39;;;;;;;38.03;24.52;;;9.60;99.90;;;;;;5030775;28;20081;-87
2023/10/26 04:08:07;;;;;;;37.80;25.35;;;9.60;99.90;;;;;;5030594;28;20084;-87
2023/10/26 04:10:34;;;;;;;38.85;25.85;;;9.60;99.90;;;;;;5014355;28;20048;-87
2023/10/26 04:13:00;;;;;;;36.90;25.42;;;9.60;99.90;;;;;;5013795;28;20121;-87
2023/10/26 04:15:25;;;;;;;36.83;25.02;;;10.10;99.90;;;;;;5030618;28;20071;-87
2023/10/26 04:17:51;;;;;;;38.70;25.25;;;9.60;99.90;;;;;;5014080;28;20419;-87
2023/10/26 04:20:17;;;;;;;38.00;25.75;;;9.60;99.90;;;;;;5013781;28;20056;-87
2023/10/26 04:22:43;;;;;;;37.13;24.50;;;9.60;99.90;;;;;;5029874;28;20041;-86
2023/10/26 04:25:08;;;;;;;43.20;26.45;;;9.60;99.90;;;;;;5029470;28;20099;-87
2023/10/26 04:27:35;;;;;;;39.97;25.52;;;9.60;99.90;;;;;;5023331;28;20368;-87
2023/10/26 04:30:01;;;;;;;39.17;25.98;;;9.60;99.90;;;;;;5026637;28;20506;-87
2023/10/26 04:32:27;;;;;;;44.90;26.73;;;10.20;99.90;;;;;;5029347;28;20087;-88
2023/10/26 04:34:53;;;;;;;42.00;27.30;;;9.60;99.90;;;;;;5028599;28;20128;-86
2023/10/26 04:37:19;;;;;;;41.13;27.48;;;9.60;99.90;;;;;;5029739;28;20183;-86
2023/10/26 04:39:44;;;;;;;44.90;27.38;;;9.60;99.90;;;;;;5030377;28;20163;-86
2023/10/26 04:42:11;;;;;;;39.75;26.88;;;9.60;99.90;;;;;;5034010;28;20029;-86
2023/10/26 04:44:37;;;;;;;40.08;26.55;;;9.60;99.90;;;;;;5035138;28;20203;-87
2023/10/26 04:47:03;;;;;;;39.25;25.75;;;9.70;99.90;;;;;;5052069;28;20139;-87
2023/10/26 04:49:28;;;;;;;43.95;27.35;;;9.60;99.90;;;;;;5034431;28;20049;-87
2023/10/26 04:51:54;;;;;;;40.38;26.17;;;9.90;99.90;;;;;;5033424;28;20048;-88
2023/10/26 04:54:20;;;;;;;39.05;27.50;;;9.60;99.90;;;;;;5033527;28;20048;-87
2023/10/26 04:56:45;;;;;;;41.40;26.38;;;9.60;99.90;;;;;;5034557;28;20049;-88
2023/10/26 04:59:12;;;;;;;44.97;27.58;;;9.50;99.90;;;;;;5034358;28;20336;-88
2023/10/26 05:01:38;;;;;;;40.58;26.63;;;9.50;99.90;;;;;;5034192;28;20076;-87
2023/10/26 05:04:04;;;;;;;45.30;27.67;;;9.50;99.90;;;;;;5034217;28;20080;-87
2023/10/26 05:06:30;;;;;;;39.63;26.73;;;9.50;99.90;;;;;;5033799;28;20052;-88
2023/10/26 05:08:56;;;;;;;41.22;27.35;;;9.50;99.90;;;;;;5034478;28;20724;-87
2023/10/26 05:11:25;;;;;;;38.97;26.10;;;9.40;99.90;;;;;;5051427;28;20048;-87
2023/10/26 05:13:53;;;;;;;42.85;26.42;;;9.40;99.90;;;;;;5034150;28;20081;-87
2023/10/26 05:16:19;;;;;;;40.97;25.02;;;9.40;99.90;;;;;;5030755;28;20037;-87
2023/10/26 05:18:45;;;;;;;40.00;25.52;;;9.40;99.90;;;;;;5033638;28;20037;-87
2023/10/26 05:21:10;;;;;;;41.80;26.52;;;9.30;99.90;;;;;;5033392;28;20098;-87
2023/10/26 05:23:38;;;;;;;43.60;26.23;;;9.30;99.90;;;;;;5032547;28;20049;-87
2023/10/26 05:26:04;;;;;;;42.50;26.67;;;9.30;99.90;;;;;;5033408;28;20556;-87
2023/10/26 05:28:29;;;;;;;38.97;26.02;;;9.30;99.90;;;;;;5031900;28;20048;-87
2023/10/26 05:30:55;;;;;;;41.25;26.25;;;9.20;99.90;;;;;;5031733;28;20049;-86
2023/10/26 05:33:20;;;;;;;38.30;24.55;;;9.20;99.90;;;;;;5014715;28;20049;-86
2023/10/26 05:35:46;;;;;;;42.35;26.10;;;9.20;99.90;;;;;;5032543;28;20041;-86
2023/10/26 05:38:11;;;;;;;41.47;26.08;;;9.20;99.90;;;;;;5030633;28;20344;-85
2023/10/26 05:40:37;;;;;;;40.90;26.65;;;9.20;99.90;;;;;;5032231;28;20041;-85
2023/10/26 05:43:03;;;;;;;38.92;26.15;;;9.20;99.90;;;;;;5030891;28;20044;-86
2023/10/26 05:45:36;;;;;;;42.72;25.80;;;9.20;99.90;;;;;;5049090;28;20044;-86
2023/10/26 05:48:03;;;;;;;38.83;25.05;;;9.20;99.90;;;;;;5026359;28;20077;-86
2023/10/26 05:50:29;;;;;;;47.25;26.35;;;9.20;99.90;;;;;;5032438;28;20052;-86
2023/10/26 05:52:55;;;;;;;44.30;25.77;;;9.00;99.90;;;;;;5028584;28;20048;-87
2023/10/26 05:55:23;;;;;;;47.83;26.90;;;9.10;99.90;;;;;;5032734;28;20779;-86
2023/10/26 05:57:49;;;;;;;37.92;24.67;;;9.10;99.90;;;;;;5031810;28;20072;-85
2023/10/26 06:00:15;;;;;;;40.60;26.08;;;9.00;99.90;;;;;;5032028;28;20037;-85
2023/10/26 06:02:41;;;;;;;41.00;25.08;;;9.10;99.90;;;;;;5032605;28;20075;-85
2023/10/26 06:05:08;;;;;;;49.10;27.55;;;9.00;99.90;;;;;;5031709;28;20502;-85
2023/10/26 06:07:33;;;;;;;40.83;25.77;;;9.00;99.90;;;;;;5032029;28;20060;-84
2023/10/26 06:09:59;;;;;;;41.88;26.08;;;9.00;99.90;;;;;;5031850;28;20052;-84
2023/10/26 06:12:25;;;;;;;43.00;26.58;;;9.10;99.90;;;;;;5026886;28;20120;-87
2023/10/26 06:14:50;;;;;;;44.55;26.77;;;9.00;99.90;;;;;;5014259;28;20118;-86
2023/10/26 06:17:16;;;;;;;41.58;25.88;;;9.00;99.90;;;;;;5030444;28;20118;-85
2023/10/26 06:19:42;;;;;;;36.50;24.58;;;9.00;99.90;;;;;;5030710;28;20449;-84
2023/10/26 06:22:07;;;;;;;43.97;26.52;;;9.00;99.90;;;;;;5027505;28;20055;-83
2023/10/26 06:24:33;;;;;;;49.22;25.30;;;9.00;99.90;;;;;;5011335;28;20483;-85
2023/10/26 06:26:59;;;;;;;38.95;24.48;;;8.90;99.90;;;;;;5028028;28;20041;-86
2023/10/26 06:29:25;;;;;;;39.15;25.67;;;8.90;99.90;;;;;;5028692;28;20480;-85
2023/10/26 06:31:51;;;;;;;35.13;23.83;;;8.90;99.90;;;;;;5028489;28;20844;-85
2023/10/26 06:34:17;;;;;;;34.85;23.85;;;8.90;99.90;;;;;;5029158;28;20038;-86
2023/10/26 06:36:43;;;;;;;39.15;25.33;;;9.30;99.90;;;;;;5026468;28;20132;-86
2023/10/26 06:39:09;;;;;;;39.33;24.92;;;8.80;99.90;;;;;;5011379;28;20128;-85
2023/10/26 06:41:34;;;;;;;35.83;23.65;;;8.90;99.90;;;;;;5028083;28;20089;-85
2023/10/26 06:44:00;;;;;;;43.00;25.13;;;8.80;99.90;;;;;;5027763;28;20469;-87
2023/10/26 06:46:25;;;;;;;39.33;25.08;;;8.90;99.90;;;;;;5016367;28;20045;-88
2023/10/26 06:48:51;;;;;;;44.25;25.27;;;9.30;99.90;;;;;;5028031;28;20084;-87
2023/10/26 06:51:18;;;;;;;41.55;25.67;;;8.90;99.90;;;;;;5028262;28;20117;-87
2023/10/26 06:53:46;;;;;;;47.60;27.13;;;8.90;99.90;;;;;;5026273;28;20103;-87
2023/10/26 06:56:12;;;;;;;43.38;26.50;;;8.90;99.90;;;;;;5027616;28;20053;-87
2023/10/26 06:58:39;;;;;;;40.67;25.98;;;9.00;99.90;;;;;;5011207;28;20407;-87
2023/10/26 07:01:07;;;;;;;42.45;26.20;;;8.90;99.90;;;;;;5028207;28;20491;-87
2023/10/26 07:03:33;;;;;;;51.55;26.73;;;8.90;99.90;;;;;;5011594;28;20049;-87
2023/10/26 07:06:03;;;;;;;38.88;24.83;;;8.90;99.90;;;;;;5027210;28;20539;-87
2023/10/26 07:08:31;;;;;;;41.28;24.38;;;8.90;99.90;;;;;;5026331;28;20908;-87
2023/10/26 07:10:59;;;;;;;52.63;27.10;;;8.90;99.90;;;;;;5011032;28;20048;-87
2023/10/26 07:13:25;;;;;;;56.42;26.90;;;8.90;99.90;;;;;;5010135;28;20084;-87
2023/10/26 07:15:50;;;;;;;52.55;27.05;;;9.00;99.90;;;;;;5011450;28;20069;-85
2023/10/26 07:18:18;;;;;;;54.92;29.17;;;9.00;99.90;;;;;;5027283;28;20041;-82
2023/10/26 07:20:44;;;;;;;43.03;25.08;;;9.10;99.90;;;;;;5028128;28;20061;-88
2023/10/26 07:23:10;;;;;;;71.18;29.48;;;9.20;99.90;;;;;;5028634;28;20147;-86
2023/10/26 07:25:36;;;;;;;62.63;29.58;;;9.20;99.90;;;;;;5027813;28;20470;-86
2023/10/26 07:28:03;;;;;;;97.13;30.40;;;9.30;99.90;;;;;;5028067;28;20144;-85
2023/10/26 07:30:28;;;;;;;117.43;32.60;;;9.40;99.90;;;;;;5028031;28;20462;-87
2023/10/26 07:32:54;;;;;;;168.88;38.45;;;9.40;99.90;;;;;;5010330;28;20048;-87
2023/10/26 07:35:20;;;;;;;105.97;29.88;;;9.50;99.90;;;;;;5025407;28;20038;-86
2023/10/26 07:37:47;;;;;;;122.80;33.65;;;9.60;99.90;;;;;;5025567;28;20099;-85
2023/10/26 07:40:13;;;;;;;88.63;29.45;;;9.60;99.90;;;;;;5026166;28;20045;-87
2023/10/26 07:42:38;;;;;;;71.28;28.45;;;9.70;99.90;;;;;;5009642;28;20419;-88
2023/10/26 07:45:06;;;;;;;58.97;25.52;;;10.00;99.90;;;;;;5024356;28;20037;-88
2023/10/26 07:47:32;;;;;;;77.20;26.65;;;9.70;99.90;;;;;;5023141;28;20564;-87
2023/10/26 07:49:57;;;;;;;72.88;25.50;;;9.70;99.90;;;;;;5028485;28;20053;-87
2023/10/26 07:52:24;;;;;;;57.08;26.38;;;9.70;99.90;;;;;;5026659;28;20418;-87
2023/10/26 07:54:50;;;;;;;73.70;28.95;;;9.80;99.90;;;;;;5010950;28;20533;-87
2023/10/26 07:57:16;;;;;;;43.13;24.00;;;9.80;99.90;;;;;;5028185;28;20064;-88
2023/10/26 07:59:42;;;;;;;51.40;25.65;;;9.80;99.90;;;;;;5011231;28;20045;-87
2023/10/26 08:02:08;;;;;;;48.08;25.27;;;9.90;99.90;;;;;;5011339;28;20046;-88
2023/10/26 08:04:34;;;;;;;38.35;24.30;;;9.90;99.90;;;;;;5026989;28;20050;-88
2023/10/26 08:07:00;;;;;;;49.83;27.05;;;9.90;99.90;;;;;;5027086;28;20051;-87
2023/10/26 08:09:30;;;;;;;37.05;25.05;;;10.00;99.90;;;;;;5027532;28;20562;-88
2023/10/26 08:11:55;;;;;;;40.15;25.73;;;10.00;99.90;;;;;;5027443;28;20050;-88
2023/10/26 08:14:22;;;;;;;38.30;25.85;;;10.00;99.90;;;;;;5025781;28;20100;-87
2023/10/26 08:16:48;;;;;;;39.00;26.00;;;10.10;99.90;;;;;;5011907;28;20422;-87
2023/10/26 08:19:13;;;;;;;38.25;26.95;;;10.60;99.90;;;;;;5032425;28;20037;-87
2023/10/26 08:21:39;;;;;;;41.08;26.50;;;10.20;99.90;;;;;;5030293;28;20057;-86
2023/10/26 08:24:06;;;;;;;38.03;25.92;;;10.20;99.90;;;;;;5014874;28;20049;-86
2023/10/26 08:26:31;;;;;;;41.30;27.38;;;10.20;99.90;;;;;;5047004;28;20052;-86
2023/10/26 08:28:57;;;;;;;41.22;27.83;;;10.20;99.90;;;;;;5030667;28;20049;-86
2023/10/26 08:31:23;;;;;;;42.60;27.67;;;10.20;99.90;;;;;;5031015;28;20049;-86
2023/10/26 08:33:48;;;;;;;41.17;25.95;;;10.20;99.90;;;;;;5030406;28;20047;-86
2023/10/26 08:36:14;;;;;;;40.22;27.02;;;10.20;99.90;;;;;;5030344;28;20435;-85
2023/10/26 08:38:39;;;;;;;40.70;26.67;;;10.20;99.90;;;;;;5030359;28;20050;-86
2023/10/26 08:41:05;;;;;;;43.67;26.98;;;10.20;99.90;;;;;;5030561;28;20084;-85
2023/10/26 08:43:33;;;;;;;44.22;27.58;;;10.30;99.90;;;;;;5030053;28;20434;-86
2023/10/26 08:46:00;;;;;;;45.40;28.13;;;10.20;99.90;;;;;;5029650;28;20053;-84
2023/10/26 08:48:28;;;;;;;40.30;27.00;;;10.20;99.90;;;;;;5031245;28;20116;-85
2023/10/26 08:50:55;;;;;;;39.60;25.98;;;10.30;99.90;;;;;;5030167;28;20045;-84
2023/10/26 08:53:22;;;;;;;38.28;25.73;;;10.30;99.90;;;;;;5029295;28;20518;-86
2023/10/26 08:55:52;;;;;;;40.95;26.08;;;10.40;99.90;;;;;;5012266;28;20037;-84
2023/10/26 08:58:20;;;;;;;37.58;25.67;;;10.40;99.90;;;;;;5030082;28;20207;-84
2023/10/26 09:00:46;;;;;;;38.42;24.50;;;11.00;99.90;;;;;;5030122;28;20038;-85
2023/10/26 09:03:12;;;;;;;38.58;25.17;;;10.60;99.90;;;;;;5028858;28;20068;-85
2023/10/26 09:05:54;;;;;;;35.47;24.30;;;10.70;99.90;;;;;;5029583;28;20053;-85
2023/10/26 09:08:23;;;;;;;34.30;24.63;;;10.80;99.90;;;;;;5029574;28;20048;-85
2023/10/26 09:10:52;;;;;;;32.60;23.63;;;10.80;99.90;;;;;;5030055;28;20037;-85
2023/10/26 09:13:29;;;;;;;31.10;21.63;;;10.80;99.90;;;;;;5028628;28;20049;-85
2023/10/26 09:15:58;;;;;;;28.27;20.48;;;11.30;99.90;;;;;;5012562;28;20103;-86
2023/10/26 09:18:26;;;;;;;30.48;22.23;;;10.70;99.90;;;;;;5018692;28;20042;-85
2023/10/26 09:21:08;;;;;;;29.38;21.33;;;10.70;99.90;;;;;;5016267;28;20096;-85
2023/10/26 09:23:36;;;;;;;27.73;20.30;;;10.70;99.90;;;;;;5029540;28;20053;-86
2023/10/26 09:26:04;;;;;;;26.98;20.25;;;10.60;99.90;;;;;;5011651;28;20049;-84
2023/10/26 09:28:47;;;;;;;27.50;20.35;;;10.60;99.90;;;;;;5012919;28;20356;-86
2023/10/26 09:31:13;;;;;;;26.92;19.38;;;10.80;99.90;;;;;;5010355;28;20029;-85
2023/10/26 09:33:39;;;;;;;29.02;19.92;;;10.70;99.90;;;;;;5028704;28;20080;-85
2023/10/26 09:36:12;;;;;;;27.30;20.30;;;10.70;99.90;;;;;;5026662;28;20039;-82
2023/10/26 09:38:39;;;;;;;24.33;19.05;;;10.70;99.90;;;;;;5028737;28;20046;-83
2023/10/26 09:41:22;;;;;;;25.92;19.25;;;10.80;99.90;;;;;;5029153;28;20156;-84
2023/10/26 09:43:48;;;;;;;24.83;18.75;;;10.80;99.90;;;;;;5028863;28;20491;-84
2023/10/26 09:46:17;;;;;;;25.67;19.20;;;11.30;99.90;;;;;;5028163;28;20037;-84
2023/10/26 09:48:43;;;;;;;23.63;18.52;;;11.00;99.90;;;;;;5028061;28;20152;-83
2023/10/26 09:51:13;;;;;;;23.83;18.00;;;11.00;99.90;;;;;;5029182;28;20506;-86
2023/10/26 09:53:41;;;;;;;23.10;17.20;;;11.00;99.90;;;;;;5011784;28;20053;-84
2023/10/26 09:56:16;;;;;;;22.98;17.70;;;11.00;99.90;;;;;;5029633;28;20114;-87
2023/10/26 09:58:43;;;;;;;22.55;17.23;;;11.00;99.90;;;;;;5028880;28;20053;-87
2023/10/26 10:01:33;;;;;;;22.48;17.05;;;11.10;99.90;;;;;;5026486;28;20085;-87
2023/10/26 10:04:00;;;;;;;22.92;16.45;;;11.10;99.90;;;;;;5012741;28;20095;-88
2023/10/26 10:06:46;;;;;;;23.60;17.63;;;11.20;99.90;;;;;;5028346;28;20106;-87
2023/10/26 10:09:12;;;;;;;22.10;16.30;;;11.10;99.90;;;;;;5030020;28;20095;-86
2023/10/26 10:11:38;;;;;;;20.38;16.13;;;11.10;99.90;;;;;;5030068;28;20056;-87
2023/10/26 10:14:04;;;;;;;22.27;16.10;;;11.20;99.90;;;;;;5012085;28;20038;-88
2023/10/26 10:16:36;;;;;;;18.98;15.82;;;11.20;99.90;;;;;;5028691;28;20060;-88
2023/10/26 10:19:28;;;;;;;20.70;16.30;;;11.20;99.90;;;;;;5028591;28;20525;-87
2023/10/26 10:21:55;;;;;;;22.85;17.17;;;11.20;99.90;;;;;;5026726;28;20057;-87
2023/10/26 10:24:39;;;;;;;20.88;16.30;;;11.30;99.90;;;;;;5026719;28;20045;-87
2023/10/26 10:27:18;;;;;;;19.40;15.98;;;11.40;99.90;;;;;;5010799;28;20059;-88
2023/10/26 10:29:44;;;;;;;21.75;16.30;;;11.40;99.90;;;;;;5028550;28;20048;-88
2023/10/26 10:32:10;;;;;;;22.13;16.83;;;11.40;99.90;;;;;;5028532;28;20033;-86
2023/10/26 10:34:44;;;;;;;19.33;16.33;;;11.40;99.90;;;;;;5028834;28;20041;-87
2023/10/26 10:37:13;;;;;;;22.77;17.00;;;11.40;99.90;;;;;;5028493;28;20519;-91
2023/10/26 10:40:12;;;;;;;21.70;17.33;;;11.30;99.90;;;;;;5027551;28;20077;-86
2023/10/26 10:42:49;;;;;;;21.20;16.98;;;11.30;99.90;;;;;;5028450;28;20095;-87
2023/10/26 10:45:16;;;;;;;19.88;16.20;;;11.30;99.90;;;;;;5011875;28;20064;-88
2023/10/26 10:47:43;;;;;;;21.10;16.75;;;11.40;99.90;;;;;;5011690;28;20087;-85
2023/10/26 10:50:17;;;;;;;22.50;16.42;;;11.50;99.90;;;;;;5029644;28;20402;-85
2023/10/26 10:52:43;;;;;;;20.50;16.15;;;11.50;99.90;;;;;;5025962;28;20121;-85
2023/10/26 10:55:09;;;;;;;21.77;16.92;;;11.70;99.90;;;;;;5028042;28;20438;-84
2023/10/26 10:57:34;;;;;;;20.83;16.85;;;11.80;99.90;;;;;;5027903;28;20076;-84
2023/10/26 11:00:00;;;;;;;20.23;16.35;;;11.90;99.90;;;;;;5031208;28;20828;-84
2023/10/26 11:02:25;;;;;;;21.98;17.23;;;12.00;99.90;;;;;;5028121;28;20504;-85
2023/10/26 11:04:59;;;;;;;19.10;15.23;;;12.00;99.90;;;;;;5027468;28;20056;-84
2023/10/26 11:07:30;;;;;;;19.70;14.95;;;12.10;99.90;;;;;;5011479;28;20034;-84
2023/10/26 11:10:00;;;;;;;21.85;16.00;;;12.10;99.90;;;;;;5027160;28;20037;-84
2023/10/26 11:12:26;;;;;;;19.60;15.38;;;12.00;99.90;;;;;;5027685;28;20404;-85
2023/10/26 11:14:53;;;;;;;19.10;15.32;;;12.00;99.90;;;;;;5026972;28;20150;-85
2023/10/26 11:17:26;;;;;;;19.38;15.93;;;12.00;99.90;;;;;;5010399;28;20717;-85
2023/10/26 11:19:53;;;;;;;17.15;14.85;;;12.00;99.90;;;;;;5029024;28;20045;-86
2023/10/26 11:22:20;;;;;;;19.42;15.50;;;12.10;99.90;;;;;;5028823;28;20062;-84
2023/10/26 11:24:46;;;;;;;18.50;14.50;;;12.40;99.90;;;;;;5030101;28;20053;-84
2023/10/26 11:27:13;;;;;;;17.27;13.63;;;12.30;99.90;;;;;;5029269;28;20392;-86
2023/10/26 11:29:43;;;;;;;15.88;13.23;;;12.30;99.90;;;;;;5028624;28;20068;-87
2023/10/26 11:32:22;;;;;;;16.25;13.35;;;12.30;99.90;;;;;;5028925;28;20527;-86
2023/10/26 11:35:13;;;;;;;14.75;12.57;;;12.40;99.90;;;;;;5030345;28;20045;-86
2023/10/26 11:38:05;;;;;;;15.88;12.90;;;12.40;99.90;;;;;;5034498;28;20544;-87
2023/10/26 11:40:32;;;;;;;17.85;12.93;;;12.40;99.90;;;;;;5033435;28;20426;-85
2023/10/26 11:43:00;;;;;;;15.50;12.60;;;12.60;99.90;;;;;;5032454;28;20041;-86
2023/10/26 11:45:27;;;;;;;17.48;13.98;;;12.70;99.90;;;;;;5034292;28;20042;-86
2023/10/26 11:47:53;;;;;;;17.40;14.07;;;12.80;99.90;;;;;;5021006;28;20053;-86
2023/10/26 11:50:19;;;;;;;16.52;13.40;;;12.90;99.90;;;;;;4995313;28;20050;-86
2023/10/26 11:52:45;;;;;;;17.10;13.98;;;12.90;99.90;;;;;;5028057;28;20056;-86
2023/10/26 11:55:12;;;;;;;18.48;14.82;;;12.90;99.90;;;;;;5013445;28;20045;-87
2023/10/26 11:57:40;;;;;;;16.73;14.07;;;13.00;99.90;;;;;;5013264;28;20053;-87
2023/10/26 12:00:11;;;;;;;18.52;14.15;;;13.00;99.90;;;;;;5001123;28;20038;-87
2023/10/26 12:02:37;;;;;;;14.70;13.10;;;12.90;99.90;;;;;;5023553;28;20499;-86
2023/10/26 12:05:03;;;;;;;15.52;13.18;;;12.80;99.90;;;;;;5014967;28;20046;-87
2023/10/26 12:07:30;;;;;;;16.98;14.38;;;12.70;99.90;;;;;;5028636;28;20517;-86
2023/10/26 12:09:56;;;;;;;16.52;13.18;;;12.70;99.90;;;;;;5030916;28;20526;-85
2023/10/26 12:12:22;;;;;;;16.95;12.98;;;12.50;99.90;;;;;;5032287;28;20460;-86
2023/10/26 12:14:48;;;;;;;17.08;13.05;;;12.10;99.90;;;;;;5032832;28;20091;-86
2023/10/26 12:17:13;;;;;;;17.48;13.00;;;12.60;99.90;;;;;;5031493;28;20074;-86
2023/10/26 12:19:39;;;;;;;16.02;13.52;;;12.70;99.90;;;;;;5033031;28;20128;-86
2023/10/26 12:22:05;;;;;;;17.48;14.65;;;12.70;99.90;;;;;;5031317;28;20470;-86
2023/10/26 12:24:31;;;;;;;16.83;13.95;;;12.80;99.90;;;;;;5034227;28;20049;-85
2023/10/26 12:26:57;;;;;;;15.45;13.68;;;13.30;99.90;;;;;;5015632;28;20048;-86
2023/10/26 12:29:23;;;;;;;16.35;13.73;;;12.70;99.90;;;;;;5034231;28;20069;-85
2023/10/26 12:31:50;;;;;;;14.63;12.98;;;12.70;99.90;;;;;;5016336;28;20053;-86
2023/10/26 12:34:15;;;;;;;19.77;14.77;;;12.30;99.90;;;;;;5032840;28;20053;-86